createdAt,value
2023-01-26T00:01:58.702Z,17.40
2023-01-26T00:04:30.835Z,28.80
2023-01-26T00:07:04.891Z,24.90
2023-01-26T00:09:36.818Z,26.00
2023-01-26T00:12:09.717Z,25.80
2023-01-26T00:14:53.825Z,21.10
2023-01-26T00:17:28.646Z,21.10
2023-01-26T00:20:01.494Z,24.80
2023-01-26T00:22:33.697Z,19.80
2023-01-26T00:25:07.136Z,25.70
2023-01-26T00:27:39.212Z,25.90
2023-01-26T00:30:13.424Z,25.10
2023-01-26T00:32:45.746Z,23.80
2023-01-26T00:35:18.010Z,26.90
2023-01-26T00:37:50.008Z,23.20
2023-01-26T00:40:24.030Z,24.50
2023-01-26T00:42:57.176Z,24.70
2023-01-26T00:45:29.958Z,25.70
2023-01-26T00:48:02.567Z,24.50
2023-01-26T00:50:34.802Z,16.50
2023-01-26T00:53:06.789Z,26.20
2023-01-26T00:55:39.129Z,21.20
2023-01-26T00:58:11.779Z,22.60
2023-01-26T01:00:44.094Z,22.90
2023-01-26T01:03:16.094Z,27.20
2023-01-26T01:05:48.976Z,21.40
2023-01-26T01:08:21.119Z,21.80
2023-01-26T01:11:03.782Z,20.50
2023-01-26T01:13:35.958Z,22.60
2023-01-26T01:16:11.827Z,20.40
2023-01-26T01:18:44.784Z,19.60
2023-01-26T01:21:18.876Z,21.20
2023-01-26T01:23:51.854Z,18.70
2023-01-26T01:26:24.965Z,19.60
2023-01-26T01:28:59.067Z,20.90
2023-01-26T01:31:31.578Z,19.10
2023-01-26T01:34:03.724Z,21.50
2023-01-26T01:36:36.112Z,20.10
2023-01-26T01:39:08.666Z,23.10
2023-01-26T01:41:41.156Z,23.20
2023-01-26T01:44:25.088Z,20.40
2023-01-26T01:47:06.308Z,21.30
2023-01-26T01:49:44.340Z,19.70
2023-01-26T01:52:21.499Z,22.00
2023-01-26T01:54:58.059Z,21.80
2023-01-26T01:57:45.313Z,20.40
2023-01-26T02:00:20.724Z,21.10
2023-01-26T02:06:14.752Z,24.80
2023-01-26T02:08:51.249Z,25.40
2023-01-26T02:11:26.017Z,24.00
2023-01-26T02:14:00.547Z,21.60
2023-01-26T02:16:34.728Z,20.70
2023-01-26T02:19:09.157Z,24.50
2023-01-26T02:21:44.306Z,23.90
2023-01-26T02:24:23.542Z,23.50
2023-01-26T02:26:56.277Z,23.70
2023-01-26T02:29:28.709Z,27.20
2023-01-26T02:32:01.458Z,23.70
2023-01-26T02:34:33.786Z,22.80
2023-01-26T02:37:05.913Z,25.20
2023-01-26T02:39:51.250Z,26.80
2023-01-26T02:42:42.244Z,24.20
2023-01-26T02:45:17.724Z,24.00
2023-01-26T02:47:49.726Z,24.00
2023-01-26T02:50:22.220Z,24.10
2023-01-26T02:52:54.345Z,26.30
2023-01-26T02:55:28.936Z,25.40
2023-01-26T02:58:02.722Z,24.80
2023-01-26T03:00:41.077Z,27.50
2023-01-26T03:03:18.229Z,26.00
2023-01-26T03:05:50.724Z,25.60
2023-01-26T03:08:22.947Z,26.20
2023-01-26T03:10:54.936Z,24.70
2023-01-26T03:13:28.313Z,27.20
2023-01-26T03:16:07.392Z,25.70
2023-01-26T03:18:56.838Z,23.50
2023-01-26T03:21:46.418Z,25.20
2023-01-26T03:24:36.288Z,25.10
2023-01-26T03:27:29.511Z,25.80
2023-01-26T03:30:08.650Z,26.90
2023-01-26T03:32:41.607Z,26.00
2023-01-26T03:35:22.830Z,23.80
2023-01-26T03:37:56.123Z,24.50
2023-01-26T03:40:56.266Z,25.30
2023-01-26T03:43:45.697Z,23.70
2023-01-26T03:46:35.335Z,24.10
2023-01-26T03:49:25.239Z,24.40
2023-01-26T03:52:16.410Z,25.40
2023-01-26T03:55:05.888Z,23.20
2023-01-26T03:57:37.985Z,23.30
2023-01-26T04:00:12.407Z,25.10
2023-01-26T04:03:01.689Z,26.10
2023-01-26T04:05:51.725Z,23.90
2023-01-26T04:08:25.069Z,23.70
2023-01-26T04:11:01.788Z,24.20
2023-01-26T04:13:52.246Z,20.30
2023-01-26T04:16:46.966Z,22.40
2023-01-26T04:19:38.870Z,23.90
2023-01-26T04:22:14.825Z,25.80
2023-01-26T04:24:48.705Z,22.50
2023-01-26T04:27:20.763Z,26.00
2023-01-26T04:29:53.488Z,24.70
2023-01-26T04:34:58.127Z,25.30
2023-01-26T04:37:31.404Z,26.40
2023-01-26T04:40:05.737Z,26.50
2023-01-26T04:42:39.465Z,28.00
2023-01-26T04:45:13.395Z,25.80
2023-01-26T04:47:46.264Z,25.10
2023-01-26T04:50:20.958Z,25.90
2023-01-26T04:52:53.228Z,24.50
2023-01-26T04:55:25.317Z,24.90
2023-01-26T04:57:58.691Z,26.10
2023-01-26T05:00:31.107Z,22.50
2023-01-26T05:03:05.292Z,23.20
2023-01-26T05:05:40.599Z,24.00
2023-01-26T05:08:13.555Z,23.20
2023-01-26T05:10:46.116Z,25.40
2023-01-26T05:13:28.134Z,24.00
2023-01-26T05:16:14.175Z,23.30
2023-01-26T05:19:04.936Z,25.00
2023-01-26T05:22:04.037Z,25.50
2023-01-26T05:24:38.689Z,24.20
2023-01-26T05:27:23.598Z,23.60
2023-01-26T05:30:00.909Z,26.70
2023-01-26T05:32:35.266Z,23.40
2023-01-26T05:35:08.882Z,24.50
2023-01-26T05:37:42.699Z,22.00
2023-01-26T05:40:17.223Z,25.00
2023-01-26T05:42:50.291Z,22.50
2023-01-26T05:45:42.824Z,23.40
2023-01-26T05:48:16.836Z,22.30
2023-01-26T05:50:49.869Z,18.00
2023-01-26T05:53:25.423Z,23.30
2023-01-26T05:55:58.035Z,19.60
2023-01-26T05:58:32.676Z,25.50
2023-01-26T06:01:08.914Z,20.90
2023-01-26T06:03:46.655Z,23.90
2023-01-26T06:06:18.769Z,23.20
2023-01-26T06:08:58.866Z,21.00
2023-01-26T06:11:36.956Z,22.50
2023-01-26T06:14:26.368Z,23.20
2023-01-26T06:16:58.845Z,21.10
2023-01-26T06:19:31.662Z,16.40
2023-01-26T06:22:06.258Z,21.70
2023-01-26T06:24:39.516Z,17.20
2023-01-26T06:27:13.772Z,18.60
2023-01-26T06:29:47.065Z,21.90
2023-01-26T06:32:20.930Z,20.00
2023-01-26T06:34:57.792Z,20.10
2023-01-26T06:37:30.717Z,21.60
2023-01-26T06:40:02.889Z,22.40
2023-01-26T06:42:35.347Z,24.30
2023-01-26T06:45:09.643Z,25.90
2023-01-26T06:47:45.695Z,22.50
2023-01-26T06:50:21.080Z,22.20
2023-01-26T06:52:56.717Z,23.10
2023-01-26T06:55:48.171Z,21.60
2023-01-26T06:58:41.705Z,19.80
2023-01-26T07:01:49.124Z,20.20
2023-01-26T07:04:21.180Z,21.30
2023-01-26T07:06:53.319Z,20.20
2023-01-26T07:09:25.354Z,21.70
2023-01-26T07:11:57.617Z,21.30
2023-01-26T07:14:29.842Z,20.70
2023-01-26T07:17:02.106Z,22.50
2023-01-26T07:19:34.541Z,22.30
2023-01-26T07:22:06.876Z,20.80
2023-01-26T07:24:39.213Z,15.90
2023-01-26T07:27:11.200Z,19.90
2023-01-26T07:29:43.493Z,18.80
2023-01-26T07:32:15.460Z,21.40
2023-01-26T07:34:48.775Z,22.40
2023-01-26T07:37:21.067Z,25.90
2023-01-26T07:39:53.103Z,20.00
2023-01-26T07:42:25.149Z,20.30
2023-01-26T07:45:11.016Z,19.30
2023-01-26T07:50:15.267Z,19.30
2023-01-26T07:52:47.279Z,21.60
2023-01-26T07:55:20.493Z,19.60
2023-01-26T07:57:52.706Z,19.80
2023-01-26T08:00:26.056Z,24.90
2023-01-26T08:02:58.816Z,18.50
2023-01-26T08:05:31.495Z,21.20
2023-01-26T08:08:03.984Z,21.40
2023-01-26T08:10:36.110Z,24.50
2023-01-26T08:13:08.136Z,19.90
2023-01-26T08:15:40.224Z,18.60
2023-01-26T08:18:12.288Z,21.20
2023-01-26T08:20:50.874Z,20.20
2023-01-26T08:23:23.336Z,21.50
2023-01-26T08:25:55.627Z,22.50
2023-01-26T08:28:28.035Z,20.00
2023-01-26T08:31:04.640Z,19.70
2023-01-26T08:33:37.153Z,25.90
2023-01-26T08:36:13.059Z,23.60
2023-01-26T08:38:45.534Z,19.70
2023-01-26T08:41:17.646Z,18.00
2023-01-26T08:43:49.734Z,17.90
2023-01-26T08:46:22.186Z,19.10
2023-01-26T08:48:54.367Z,19.00
2023-01-26T08:51:26.644Z,19.00
2023-01-26T08:54:01.427Z,19.40
2023-01-26T08:56:33.614Z,20.40
2023-01-26T08:59:05.705Z,18.20
2023-01-26T09:01:38.128Z,20.60
2023-01-26T09:04:10.537Z,17.80
2023-01-26T09:06:42.973Z,16.90
2023-01-26T09:09:15.922Z,20.30
2023-01-26T09:11:48.635Z,19.00
2023-01-26T09:14:21.097Z,23.20
2023-01-26T09:16:53.508Z,19.30
2023-01-26T09:19:25.726Z,16.40
2023-01-26T09:21:58.205Z,20.20
2023-01-26T09:24:30.350Z,20.80
2023-01-26T09:27:03.245Z,19.70
2023-01-26T09:29:35.265Z,16.10
2023-01-26T09:32:07.964Z,16.70
2023-01-26T09:34:40.153Z,21.90
2023-01-26T09:37:12.492Z,20.80
2023-01-26T09:39:45.325Z,18.70
2023-01-26T09:42:34.137Z,18.40
2023-01-26T09:45:20.087Z,18.60
2023-01-26T09:48:04.682Z,19.70
2023-01-26T09:50:42.791Z,22.80
2023-01-26T09:53:20.717Z,21.50
2023-01-26T09:55:53.707Z,19.40
2023-01-26T09:58:36.072Z,23.20
2023-01-26T10:01:16.309Z,22.20
2023-01-26T10:03:53.273Z,22.30
2023-01-26T10:06:29.422Z,21.10
2023-01-26T10:09:19.013Z,19.80
2023-01-26T10:11:55.966Z,22.80
2023-01-26T10:14:37.866Z,16.90
2023-01-26T10:17:16.796Z,19.40
2023-01-26T10:19:52.556Z,18.10
2023-01-26T10:22:32.035Z,18.30
2023-01-26T10:25:04.225Z,20.30
2023-01-26T10:27:36.971Z,20.30
2023-01-26T10:30:16.890Z,17.00
2023-01-26T10:32:52.668Z,20.60
2023-01-26T10:35:26.534Z,21.10
2023-01-26T10:40:30.425Z,20.00
2023-01-26T10:43:02.734Z,18.60
2023-01-26T10:45:46.194Z,20.60
2023-01-26T10:48:24.495Z,15.00
2023-01-26T10:51:15.354Z,19.90
2023-01-26T10:53:47.507Z,19.70
2023-01-26T10:56:20.618Z,19.50
2023-01-26T10:58:56.105Z,19.90
2023-01-26T11:01:28.827Z,18.70
2023-01-26T11:04:08.625Z,21.40
2023-01-26T11:06:40.974Z,21.20
2023-01-26T11:09:19.589Z,19.60
2023-01-26T11:12:19.609Z,20.40
2023-01-26T11:15:04.432Z,20.10
2023-01-26T11:17:41.313Z,22.30
2023-01-26T11:20:38.041Z,22.40
2023-01-26T11:23:20.433Z,21.00
2023-01-26T11:26:11.904Z,20.20
2023-01-26T11:28:58.699Z,21.20
2023-01-26T11:31:42.249Z,20.90
2023-01-26T11:34:26.705Z,21.70
2023-01-26T11:37:33.262Z,20.70
2023-01-26T11:40:15.672Z,19.30
2023-01-26T11:42:58.250Z,22.80
2023-01-26T11:45:38.250Z,22.80
2023-01-26T11:48:24.713Z,24.10
2023-01-26T11:51:05.525Z,22.60
2023-01-26T11:53:59.762Z,24.80
2023-01-26T11:56:45.087Z,25.10
2023-01-26T11:59:21.230Z,27.50
2023-01-26T12:02:00.083Z,28.50
2023-01-26T12:04:39.396Z,24.80
2023-01-26T12:07:19.486Z,27.60
2023-01-26T12:09:53.373Z,24.20
2023-01-26T12:12:33.155Z,24.70
2023-01-26T12:15:08.010Z,24.90
2023-01-26T12:17:51.556Z,28.00
2023-01-26T12:20:30.311Z,24.50
2023-01-26T12:23:07.587Z,25.90
2023-01-26T12:25:41.666Z,25.70
2023-01-26T12:28:22.408Z,25.40
2023-01-26T12:31:05.941Z,23.80
2023-01-26T12:33:39.932Z,24.80
2023-01-26T12:36:36.335Z,25.30
2023-01-26T12:39:13.821Z,24.10
2023-01-26T12:42:04.825Z,27.00
2023-01-26T12:44:42.206Z,23.20
2023-01-26T12:47:20.986Z,25.10
2023-01-26T12:50:00.603Z,22.50
2023-01-26T12:52:39.742Z,24.40
2023-01-26T12:55:17.979Z,25.50
2023-01-26T12:57:54.984Z,24.40
2023-01-26T13:00:30.518Z,21.20
2023-01-26T13:03:06.938Z,24.80
2023-01-26T13:05:55.501Z,25.70
2023-01-26T13:09:00.906Z,24.00
2023-01-26T13:11:48.168Z,23.50
2023-01-26T13:14:39.309Z,23.50
2023-01-26T13:17:53.582Z,23.00
2023-01-26T13:20:46.470Z,22.20
2023-01-26T13:23:42.900Z,26.80
2023-01-26T13:26:43.984Z,26.00
2023-01-26T13:29:36.689Z,25.10
2023-01-26T13:32:59.871Z,24.30
2023-01-26T13:35:33.117Z,24.90
2023-01-26T13:38:13.317Z,24.20
2023-01-26T13:40:49.983Z,23.20
2023-01-26T13:43:29.486Z,24.60
2023-01-26T13:46:21.323Z,24.70
2023-01-26T13:48:54.540Z,23.00
2023-01-26T13:51:29.897Z,27.40
2023-01-26T13:54:05.510Z,25.30
2023-01-26T13:56:40.869Z,21.80
2023-01-26T13:59:15.932Z,25.00
2023-01-26T14:01:50.693Z,27.00
2023-01-26T14:04:25.017Z,27.60
2023-01-26T14:07:00.667Z,27.50
2023-01-26T14:09:35.609Z,27.20
2023-01-26T14:12:09.180Z,26.60
2023-01-26T14:14:41.642Z,28.70
2023-01-26T14:17:29.619Z,26.30
2023-01-26T14:20:03.983Z,29.50
2023-01-26T14:22:38.082Z,27.80
2023-01-26T14:25:14.439Z,26.90
2023-01-26T14:27:46.727Z,27.60
2023-01-26T14:30:31.496Z,30.00
2023-01-26T14:33:07.256Z,26.40
2023-01-26T14:35:39.296Z,30.00
2023-01-26T14:38:20.176Z,26.00
2023-01-26T14:40:53.628Z,30.80
2023-01-26T14:43:27.471Z,29.10
2023-01-26T14:46:05.447Z,30.80
2023-01-26T14:48:43.594Z,28.60
2023-01-26T14:51:21.530Z,29.80
2023-01-26T14:53:57.240Z,26.20
2023-01-26T14:56:39.392Z,33.60
2023-01-26T14:59:20.365Z,32.20
2023-01-26T15:01:52.862Z,35.30
2023-01-26T15:04:35.458Z,32.20
2023-01-26T15:07:37.238Z,29.70
2023-01-26T15:10:32.183Z,32.30
2023-01-26T15:13:08.449Z,34.60
2023-01-26T15:15:42.175Z,37.10
2023-01-26T15:18:22.832Z,37.10
2023-01-26T15:21:00.960Z,35.90
2023-01-26T15:23:34.747Z,41.30
2023-01-26T15:26:12.215Z,40.20
2023-01-26T15:28:44.838Z,37.30
2023-01-26T15:31:27.031Z,38.00
2023-01-26T15:34:01.836Z,36.30
2023-01-26T15:36:49.108Z,39.40
2023-01-26T15:39:22.568Z,36.30
2023-01-26T15:42:12.302Z,39.00
2023-01-26T15:44:44.789Z,41.20
2023-01-26T15:47:17.530Z,36.80
2023-01-26T15:49:49.517Z,41.60
2023-01-26T15:52:23.730Z,38.40
2023-01-26T15:54:55.918Z,38.00
2023-01-26T15:57:31.925Z,37.00
2023-01-26T16:00:04.626Z,35.90
2023-01-26T16:02:39.629Z,35.80
2023-01-26T16:05:16.758Z,38.00
2023-01-26T16:07:51.159Z,41.20
2023-01-26T16:10:23.076Z,38.20
2023-01-26T16:12:55.372Z,38.70
2023-01-26T16:15:35.736Z,61.30
2023-01-26T16:18:08.449Z,37.60
2023-01-26T16:20:42.584Z,37.50
2023-01-26T16:23:23.253Z,39.30
2023-01-26T16:25:55.367Z,38.10
2023-01-26T16:28:27.517Z,43.20
2023-01-26T16:31:02.386Z,43.30
2023-01-26T16:33:34.739Z,37.20
2023-01-26T16:36:11.499Z,40.70
2023-01-26T16:38:44.192Z,38.00
2023-01-26T16:41:21.795Z,37.30
2023-01-26T16:43:55.029Z,37.00
2023-01-26T16:46:28.104Z,28.80
2023-01-26T16:49:00.896Z,34.40
2023-01-26T16:51:39.364Z,30.70
2023-01-26T16:54:13.799Z,33.70
2023-01-26T16:56:48.615Z,39.20
2023-01-26T16:59:20.716Z,35.60
2023-01-26T17:01:52.805Z,38.70
2023-01-26T17:04:25.129Z,39.40
2023-01-26T17:06:57.609Z,35.50
2023-01-26T17:09:29.706Z,36.80
2023-01-26T17:12:01.733Z,35.50
2023-01-26T17:14:35.027Z,38.80
2023-01-26T17:17:07.449Z,39.80
2023-01-26T17:19:40.500Z,37.20
2023-01-26T17:22:13.141Z,35.20
2023-01-26T17:24:45.309Z,31.20
2023-01-26T17:27:17.915Z,36.30
2023-01-26T17:29:50.711Z,29.40
2023-01-26T17:32:31.857Z,33.90
2023-01-26T17:35:10.175Z,34.60
2023-01-26T17:37:43.307Z,34.40
2023-01-26T17:40:16.974Z,31.80
2023-01-26T17:45:19.489Z,39.10
2023-01-26T17:47:51.611Z,40.70
2023-01-26T17:50:24.054Z,40.00
2023-01-26T17:52:59.556Z,41.80
2023-01-26T17:55:32.572Z,42.30
2023-01-26T17:58:05.677Z,42.00
2023-01-26T18:00:37.974Z,42.90
2023-01-26T18:03:11.387Z,41.80
2023-01-26T18:05:51.012Z,43.40
2023-01-26T18:08:23.803Z,42.20
2023-01-26T18:11:03.545Z,43.90
2023-01-26T18:13:36.415Z,47.50
2023-01-26T18:16:11.163Z,49.50
2023-01-26T18:18:43.486Z,47.70
2023-01-26T18:21:18.139Z,49.90
2023-01-26T18:23:52.223Z,43.90
2023-01-26T18:26:26.277Z,42.60
2023-01-26T18:28:58.458Z,43.10
2023-01-26T18:31:33.131Z,44.70
2023-01-26T18:34:05.896Z,40.60
2023-01-26T18:36:38.471Z,46.70
2023-01-26T18:39:24.407Z,45.40
2023-01-26T18:41:56.705Z,46.80
2023-01-26T18:44:29.233Z,49.20
2023-01-26T18:47:01.681Z,42.50
2023-01-26T18:49:34.701Z,46.90
2023-01-26T18:52:07.735Z,46.00
2023-01-26T18:54:45.063Z,43.40
2023-01-26T18:57:17.980Z,45.10
2023-01-26T18:59:50.157Z,46.20
2023-01-26T19:02:22.851Z,54.40
2023-01-26T19:04:55.353Z,45.20
2023-01-26T19:07:27.647Z,40.50
2023-01-26T19:09:59.604Z,44.50
2023-01-26T19:12:31.871Z,40.20
2023-01-26T19:15:03.921Z,47.90
2023-01-26T19:17:35.917Z,42.70
2023-01-26T19:20:09.395Z,41.20
2023-01-26T19:22:59.347Z,41.70
2023-01-26T19:25:38.805Z,43.20
2023-01-26T19:28:15.984Z,42.30
2023-01-26T19:30:48.481Z,44.80
2023-01-26T19:33:28.497Z,45.00
2023-01-26T19:36:04.290Z,43.60
2023-01-26T19:38:39.887Z,46.40
2023-01-26T19:41:12.581Z,45.10
2023-01-26T19:43:46.006Z,48.80
2023-01-26T19:46:22.443Z,44.10
2023-01-26T19:48:55.250Z,42.30
2023-01-26T19:51:29.657Z,44.00
2023-01-26T19:54:02.169Z,49.30
2023-01-26T19:56:37.279Z,44.70
2023-01-26T19:59:14.622Z,41.00
2023-01-26T20:01:46.566Z,46.40
2023-01-26T20:04:21.979Z,41.40
2023-01-26T20:06:57.148Z,44.20
2023-01-26T20:12:10.569Z,36.70
2023-01-26T20:14:44.155Z,38.70
2023-01-26T20:17:16.927Z,41.80
2023-01-26T20:19:50.547Z,44.90
2023-01-26T20:22:25.227Z,41.00
2023-01-26T20:24:58.031Z,46.00
2023-01-26T20:27:31.469Z,44.30
2023-01-26T20:30:03.707Z,40.60
2023-01-26T20:32:36.486Z,41.20
2023-01-26T20:35:10.217Z,35.60
2023-01-26T20:37:42.767Z,43.20
2023-01-26T20:40:15.855Z,37.80
2023-01-26T20:42:48.176Z,44.40
2023-01-26T20:45:20.516Z,44.50
2023-01-26T20:47:53.579Z,43.80
2023-01-26T20:50:26.049Z,48.80
2023-01-26T20:52:58.226Z,48.30
2023-01-26T20:55:31.396Z,47.80
2023-01-26T20:58:06.861Z,45.50
2023-01-26T21:00:41.107Z,52.00
2023-01-26T21:03:14.808Z,56.30
2023-01-26T21:05:48.781Z,72.00
2023-01-26T21:08:22.102Z,63.00
2023-01-26T21:13:29.804Z,59.30
2023-01-26T21:16:02.126Z,52.10
2023-01-26T21:18:34.816Z,55.50
2023-01-26T21:21:09.484Z,56.40
2023-01-26T21:23:41.798Z,55.20
2023-01-26T21:26:16.660Z,60.80
2023-01-26T21:28:50.888Z,69.50
2023-01-26T21:31:25.291Z,54.00
2023-01-26T21:34:00.190Z,57.80
2023-01-26T21:36:35.506Z,61.40
2023-01-26T21:39:11.010Z,56.60
2023-01-26T21:41:59.245Z,46.20
2023-01-26T21:44:32.962Z,50.10
2023-01-26T21:47:06.650Z,49.80
2023-01-26T21:49:38.715Z,53.50
2023-01-26T21:52:29.202Z,46.10
2023-01-26T21:55:03.055Z,48.70
2023-01-26T21:57:52.505Z,45.10
2023-01-26T22:00:25.278Z,43.70
2023-01-26T22:02:59.806Z,44.80
2023-01-26T22:05:32.102Z,48.10
2023-01-26T22:08:06.962Z,50.20
2023-01-26T22:10:40.277Z,45.80
2023-01-26T22:13:12.509Z,45.20
2023-01-26T22:15:45.738Z,43.00
2023-01-26T22:18:18.213Z,41.00
2023-01-26T22:20:50.537Z,42.90
2023-01-26T22:23:25.786Z,41.50
2023-01-26T22:25:58.550Z,49.20
2023-01-26T22:28:32.695Z,47.20
2023-01-26T22:31:06.996Z,54.30
2023-01-26T22:33:39.725Z,51.10
2023-01-26T22:36:14.196Z,58.80
2023-01-26T22:38:47.350Z,59.00
2023-01-26T22:41:21.767Z,41.00
2023-01-26T22:44:05.151Z,54.70
2023-01-26T22:46:37.794Z,56.20
2023-01-26T22:49:11.347Z,46.60
2023-01-26T22:51:43.271Z,62.10
2023-01-26T22:54:15.300Z,64.00
2023-01-26T22:56:47.387Z,71.50
2023-01-26T22:59:19.446Z,58.80
2023-01-26T23:01:51.445Z,70.70
2023-01-26T23:04:23.657Z,56.40
2023-01-26T23:06:55.693Z,55.30
2023-01-26T23:09:29.626Z,47.80
2023-01-26T23:12:04.678Z,56.00
2023-01-26T23:14:36.841Z,56.80
2023-01-26T23:17:09.408Z,51.40
2023-01-26T23:19:41.626Z,54.50
2023-01-26T23:22:13.457Z,55.20
2023-01-26T23:25:06.489Z,52.10
2023-01-26T23:27:38.586Z,51.80
2023-01-26T23:30:13.112Z,50.90
2023-01-26T23:32:45.326Z,50.70
2023-01-26T23:35:19.121Z,46.10
2023-01-26T23:40:21.697Z,47.80
2023-01-26T23:43:06.850Z,44.30
2023-01-26T23:45:44.210Z,42.90
2023-01-26T23:48:16.720Z,44.90
2023-01-26T23:50:49.181Z,41.80
2023-01-26T23:53:21.245Z,40.00
2023-01-26T23:55:53.554Z,41.00
2023-01-26T23:58:34.656Z,41.00
